Time;durP1;ratioP1;P1;durP2;ratioP2;P2;SDS_P1;SDS_P2;PMS_P1;PMS_P2;Temp;Humidity;BMP_temperature;BMP_pressure;BME280_temperature;BME280_humidity;BME280_pressure;Samples;Min_cycle;Max_cycle;Signal;HPM_P1;HPM_P2
2023/01/02 00:01:57;;;;;;;10.40;6.77;;;;;;;14.81;52.35;98912.75;6943705;28;20733;-77
2023/01/02 00:05:19;;;;;;;12.60;7.97;;;;;;;14.78;53.28;98920.50;6945626;28;20216;-75
2023/01/02 00:08:40;;;;;;;13.23;7.87;;;;;;;14.59;53.80;98906.16;6944896;28;20318;-76
2023/01/02 00:12:02;;;;;;;11.73;7.80;;;;;;;14.32;54.10;98887.69;6945241;28;20606;-76
2023/01/02 00:15:23;;;;;;;13.60;7.20;;;;;;;14.22;55.10;98911.81;6918437;28;20253;-76
2023/01/02 00:18:46;;;;;;;10.27;6.00;;;;;;;14.56;54.13;98890.31;6917419;28;20258;-76
2023/01/02 00:22:08;;;;;;;11.40;5.90;;;;;;;14.25;55.17;98886.94;6917798;28;20311;-76
2023/01/02 00:25:29;;;;;;;12.17;6.67;;;;;;;14.10;55.06;98898.13;6917862;28;20208;-76
2023/01/02 00:28:51;;;;;;;9.57;6.10;;;;;;;14.03;55.74;98888.41;6917677;28;20278;-76
2023/01/02 00:32:12;;;;;;;9.37;6.07;;;;;;;13.94;55.89;98890.63;6918110;28;20294;-77
2023/01/02 00:35:37;;;;;;;9.27;5.43;;;;;;;14.53;54.02;98895.38;6918193;28;20252;-77
2023/01/02 00:38:58;;;;;;;8.67;5.57;;;;;;;14.40;54.96;98890.13;6916620;28;20823;-77
2023/01/02 00:42:20;;;;;;;7.50;5.00;;;;;;;14.62;54.24;98883.16;6917979;28;20278;-77
2023/01/02 00:45:42;;;;;;;7.87;5.23;;;;;;;14.34;54.52;98867.44;6917413;28;20207;-77
2023/01/02 00:49:04;;;;;;;6.87;5.43;;;;;;;14.42;54.20;98878.00;6917113;28;20736;-77
2023/01/02 00:52:27;;;;;;;7.07;5.20;;;;;;;14.39;54.42;98875.72;6922960;28;20211;-76
2023/01/02 00:55:48;;;;;;;9.47;5.77;;;;;;;14.52;54.09;98872.03;6922795;28;20254;-76
2023/01/02 00:59:10;;;;;;;7.00;5.80;;;;;;;14.11;55.05;98877.28;6922339;28;20232;-77
2023/01/02 01:02:31;;;;;;;10.97;5.87;;;;;;;14.42;54.46;98879.88;6921909;28;20272;-76
2023/01/02 01:05:53;;;;;;;6.10;4.70;;;;;;;14.42;54.64;98883.41;6922585;28;20197;-77
2023/01/02 01:09:16;;;;;;;6.47;4.93;;;;;;;14.63;54.01;98877.50;6922246;28;20767;-77
2023/01/02 01:12:38;;;;;;;7.63;5.50;;;;;;;14.34;54.63;98869.34;6922696;28;20217;-77
2023/01/02 01:16:04;;;;;;;7.30;5.27;;;;;;;14.30;55.00;98884.38;6922776;28;20211;-77
2023/01/02 01:19:28;;;;;;;7.23;5.27;;;;;;;14.23;55.45;98884.47;6922607;28;20741;-77
2023/01/02 01:22:50;;;;;;;11.07;9.47;;;;;;;14.52;54.43;98883.69;6922576;28;20253;-77
2023/01/02 01:26:13;;;;;;;10.23;7.77;;;;;;;14.63;54.24;98891.06;6922168;28;20295;-77
2023/01/02 01:29:34;;;;;;;8.70;6.57;;;;;;;14.48;54.67;98893.34;6922354;28;20261;-76
2023/01/02 01:32:56;;;;;;;8.90;7.30;;;;;;;13.96;55.35;98874.09;6921925;28;20265;-77
2023/01/02 01:36:19;;;;;;;7.87;6.17;;;;;;;13.96;56.26;98906.63;6921117;28;20350;-76
2023/01/02 01:39:40;;;;;;;8.90;6.07;;;;;;;14.30;55.24;98911.50;6921508;28;20238;-76
2023/01/02 01:43:03;;;;;;;7.50;6.23;;;;;;;14.24;55.31;98907.84;6922252;28;20210;-77
2023/01/02 01:46:27;;;;;;;8.57;5.77;;;;;;;14.23;54.58;98878.22;6921348;28;20261;-76
2023/01/02 01:49:49;;;;;;;5.90;5.30;;;;;;;14.17;55.04;98923.28;6921415;28;20310;-77
2023/01/02 01:53:14;;;;;;;9.53;5.93;;;;;;;13.65;56.90;98923.00;6921950;28;20212;-77
2023/01/02 01:56:37;;;;;;;7.70;5.73;;;;;;;13.97;56.12;98925.41;6921034;28;20250;-77
2023/01/02 02:00:01;;;;;;;7.80;5.00;;;;;;;13.76;56.50;98928.50;6921718;28;20208;-77
2023/01/02 02:03:26;;;;;;;6.17;5.50;;;;;;;14.33;54.87;98932.78;6920151;28;20216;-77
2023/01/02 02:06:49;;;;;;;7.77;6.00;;;;;;;14.16;54.67;98928.97;6920151;28;20208;-77
2023/01/02 02:10:11;;;;;;;6.97;6.17;;;;;;;13.93;55.43;98928.78;6921416;28;20333;-77
2023/01/02 02:13:34;;;;;;;6.80;5.00;;;;;;;13.86;55.84;98917.19;6924629;28;20203;-76
2023/01/02 02:17:03;;;;;;;6.97;5.03;;;;;;;14.02;55.19;98911.16;6920611;28;20285;-77
2023/01/02 02:20:39;;;;;;;7.13;5.47;;;;;;;13.77;55.84;98888.69;6921817;28;20629;-77
2023/01/02 02:24:34;;;;;;;6.90;4.97;;;;;;;13.71;56.29;98913.97;6920826;28;20264;-77
2023/01/02 02:28:22;;;;;;;6.03;4.07;;;;;;;14.01;54.89;98902.22;6916694;28;20312;-76
2023/01/02 02:31:49;;;;;;;7.10;4.83;;;;;;;13.49;56.87;98900.00;6920420;28;20251;-76
2023/01/02 02:35:19;;;;;;;6.33;5.17;;;;;;;13.80;56.11;98891.78;6920650;28;20606;-77
2023/01/02 02:38:50;;;;;;;5.37;4.30;;;;;;;13.41;57.14;98894.88;6920076;28;20307;-77
2023/01/02 02:42:17;;;;;;;5.67;4.33;;;;;;;13.93;55.84;98871.84;6920656;28;20270;-77
2023/01/02 02:45:46;;;;;;;5.23;4.20;;;;;;;14.00;55.82;98888.88;6920571;28;20274;-77
2023/01/02 02:49:14;;;;;;;6.00;3.27;;;;;;;14.07;54.93;98878.78;6920081;28;20232;-77
2023/01/02 02:52:39;;;;;;;3.83;2.90;;;;;;;13.97;55.72;98879.31;6921020;28;20284;-77
2023/01/02 02:56:03;;;;;;;4.47;2.87;;;;;;;13.82;55.57;98878.84;6947285;28;20207;-77
2023/01/02 02:59:25;;;;;;;4.20;2.90;;;;;;;13.45;55.96;98868.16;6947442;28;20344;-77
2023/01/02 03:02:46;;;;;;;4.93;2.63;;;;;;;13.44;57.25;98875.44;6946921;28;20325;-76
2023/01/02 03:06:38;;;;;;;4.60;3.10;;;;;;;13.09;58.22;98866.16;6947489;28;20575;-78
2023/01/02 03:10:10;;;;;;;5.83;3.20;;;;;;;13.47;56.76;98845.22;6947293;28;20196;-77
2023/01/02 03:13:37;;;;;;;4.10;3.10;;;;;;;13.65;56.50;98863.38;6947435;28;20192;-77
2023/01/02 03:17:02;;;;;;;3.83;3.03;;;;;;;13.26;57.01;98848.31;6946632;28;20227;-77
2023/01/02 03:20:26;;;;;;;3.70;2.80;;;;;;;13.30;57.33;98862.25;6947463;28;20575;-77
2023/01/02 03:23:49;;;;;;;4.73;2.90;;;;;;;13.77;56.26;98858.88;6947003;28;20203;-77
2023/01/02 03:27:14;;;;;;;4.07;3.30;;;;;;;12.92;58.24;98864.19;6946371;28;20853;-77
2023/01/02 03:30:37;;;;;;;8.13;3.30;;;;;;;13.10;57.71;98870.50;6946741;28;20293;-77
2023/01/02 03:34:01;;;;;;;7.17;3.33;;;;;;;13.42;56.30;98819.84;6946652;28;20274;-77
2023/01/02 03:37:26;;;;;;;3.47;2.80;;;;;;;13.13;57.12;98859.25;6946046;28;20264;-77
2023/01/02 03:40:55;;;;;;;4.47;3.40;;;;;;;13.14;57.19;98849.25;6946531;28;20713;-76
2023/01/02 03:44:16;;;;;;;4.90;3.40;;;;;;;13.77;56.02;98858.88;6945854;28;20199;-76
2023/01/02 03:47:43;;;;;;;3.73;3.00;;;;;;;13.70;55.42;98836.44;6945774;28;20704;-77
2023/01/02 03:51:04;;;;;;;6.00;3.00;;;;;;;13.12;57.21;98867.59;6946467;28;20328;-77
2023/01/02 03:54:26;;;;;;;4.03;3.03;;;;;;;13.02;57.63;98856.41;6946308;28;20206;-77
2023/01/02 03:57:58;;;;;;;11.37;3.23;;;;;;;13.74;55.25;98862.06;6945579;28;20287;-77
2023/01/02 04:01:27;;;;;;;3.50;3.20;;;;;;;13.35;56.74;98865.13;6945924;28;20280;-77
2023/01/02 04:04:53;;;;;;;4.07;2.80;;;;;;;13.82;55.40;98864.47;6944695;28;20336;-77
2023/01/02 04:08:19;;;;;;;2.90;2.60;;;;;;;13.72;54.79;98840.59;6945695;28;20356;-77
2023/01/02 04:11:43;;;;;;;4.47;3.17;;;;;;;13.46;55.57;98867.09;6946128;28;20345;-76
2023/01/02 04:15:08;;;;;;;3.37;2.60;;;;;;;13.43;55.36;98862.97;6946103;28;20364;-77
2023/01/02 04:18:33;;;;;;;4.07;2.73;;;;;;;12.79;57.41;98872.34;6945483;28;20226;-77
2023/01/02 04:21:57;;;;;;;3.83;2.93;;;;;;;13.25;56.54;98873.75;6945701;28;20293;-77
2023/01/02 04:25:19;;;;;;;4.23;2.80;;;;;;;13.42;55.56;98866.72;6948048;28;20211;-76
2023/01/02 04:28:41;;;;;;;3.83;3.47;;;;;;;13.55;55.37;98866.59;6950534;28;20360;-76
2023/01/02 04:32:11;;;;;;;4.53;2.80;;;;;;;13.07;56.99;98860.13;6951270;28;20352;-76
2023/01/02 04:35:34;;;;;;;4.93;2.77;;;;;;;13.20;55.61;98854.63;6951783;28;20274;-77
2023/01/02 04:38:56;;;;;;;5.70;2.50;;;;;;;13.18;56.83;98847.75;6950903;28;20272;-77
2023/01/02 04:42:17;;;;;;;4.70;3.20;;;;;;;13.23;55.97;98826.28;6951685;28;20316;-77
2023/01/02 04:45:39;;;;;;;7.97;3.00;;;;;;;12.49;58.20;98830.72;6951389;28;20207;-77
2023/01/02 04:49:01;;;;;;;4.60;2.90;;;;;;;13.19;56.51;98833.16;6950052;28;20227;-77
2023/01/02 04:52:23;;;;;;;4.60;2.70;;;;;;;13.53;55.58;98836.22;6951000;28;20265;-76
2023/01/02 04:55:44;;;;;;;3.00;2.80;;;;;;;13.48;55.64;98848.75;6951023;28;20248;-77
2023/01/02 04:59:06;;;;;;;3.17;2.63;;;;;;;13.26;55.63;98842.91;6949972;28;20316;-77
2023/01/02 05:02:27;;;;;;;4.67;2.80;;;;;;;13.19;56.16;98842.13;6950600;28;20305;-76
2023/01/02 05:05:50;;;;;;;5.87;2.90;;;;;;;12.95;56.77;98847.47;6949385;28;20662;-77
2023/01/02 05:09:12;;;;;;;6.43;2.93;;;;;;;13.07;57.22;98843.06;6949855;28;20227;-77
2023/01/02 05:12:34;;;;;;;4.20;2.80;;;;;;;13.27;56.38;98836.44;6949901;28;20203;-77
2023/01/02 05:15:56;;;;;;;2.97;2.67;;;;;;;13.22;56.42;98835.44;6949559;28;20203;-77
2023/01/02 05:19:17;;;;;;;3.60;2.83;;;;;;;13.40;55.47;98849.03;6949091;28;20655;-77
2023/01/02 05:26:20;;;;;;;3.03;2.80;;;;;;;12.90;56.97;98847.31;6947954;28;20188;-77
2023/01/02 05:29:41;;;;;;;3.47;3.03;;;;;;;13.00;56.77;98845.81;6948696;28;20764;-77
2023/01/02 05:33:03;;;;;;;3.07;2.70;;;;;;;12.85;56.69;98852.53;6948786;28;20207;-77
2023/01/02 05:36:25;;;;;;;4.87;2.63;;;;;;;12.33;59.42;98858.25;6948299;28;20745;-77
2023/01/02 05:39:48;;;;;;;3.20;2.73;;;;;;;13.04;56.57;98847.03;6948986;28;20376;-77
2023/01/02 05:43:10;;;;;;;4.90;2.90;;;;;;;12.75;57.26;98852.22;6949033;28;20744;-77
2023/01/02 05:46:31;;;;;;;4.50;3.87;;;;;;;12.53;57.34;98854.41;6948519;28;20264;-77
2023/01/02 05:49:53;;;;;;;6.37;3.23;;;;;;;12.27;59.26;98846.41;6949211;28;20647;-77
2023/01/02 05:53:14;;;;;;;7.60;3.30;;;;;;;12.33;58.43;98852.84;6948719;28;20274;-77
2023/01/02 05:56:37;;;;;;;6.23;3.93;;;;;;;11.94;60.94;98851.13;6948350;28;20207;-77
2023/01/02 05:59:59;;;;;;;8.17;3.53;;;;;;;12.48;59.39;98854.25;6949626;28;20296;-77
2023/01/02 06:03:20;;;;;;;5.67;3.40;;;;;;;12.27;58.92;98845.59;6948892;28;20226;-78
2023/01/02 06:06:42;;;;;;;5.43;3.77;;;;;;;12.49;58.77;98855.88;6947850;28;20278;-78
2023/01/02 06:10:03;;;;;;;5.13;3.67;;;;;;;12.39;59.63;98869.03;6948283;28;20270;-78
2023/01/02 06:13:28;;;;;;;6.70;4.13;;;;;;;12.65;58.63;98855.41;6948901;28;20672;-78
2023/01/02 06:16:49;;;;;;;4.23;3.40;;;;;;;12.27;58.95;98865.34;6947780;28;20210;-77
2023/01/02 06:20:11;;;;;;;4.13;3.70;;;;;;;12.75;58.07;98876.56;6948208;28;20226;-78
2023/01/02 06:23:33;;;;;;;4.53;3.57;;;;;;;12.34;58.69;98882.34;6960953;28;20210;-78
2023/01/02 06:26:54;;;;;;;7.27;3.90;;;;;;;12.18;60.15;98887.44;6974707;28;20314;-78
2023/01/02 06:30:17;;;;;;;5.23;3.97;;;;;;;12.17;59.94;98891.16;6973771;28;20666;-77
2023/01/02 06:33:39;;;;;;;4.73;4.30;;;;;;;11.94;60.00;98877.31;6942217;28;20199;-78
2023/01/02 06:37:01;;;;;;;6.03;4.33;;;;;;;12.24;59.70;98887.41;6945933;28;20272;-78
2023/01/02 06:40:22;;;;;;;8.53;6.00;;;;;;;12.03;59.02;98884.16;6946493;28;20388;-78
2023/01/02 06:43:45;;;;;;;12.57;7.47;;;;;;;11.69;60.28;98889.84;6946344;28;20206;-79
2023/01/02 06:47:08;;;;;;;11.27;6.27;;;;;;;11.48;60.27;98884.63;6945633;28;20322;-78
2023/01/02 06:50:30;;;;;;;12.43;7.50;;;;;;;11.78;60.34;98864.25;6935390;28;20196;-78
2023/01/02 06:53:51;;;;;;;6.10;4.20;;;;;;;11.69;59.56;98869.03;6918853;28;20208;-77
2023/01/02 06:57:13;;;;;;;5.47;4.47;;;;;;;11.99;58.90;98886.44;6919128;28;20358;-78
2023/01/02 07:00:34;;;;;;;6.07;4.30;;;;;;;12.19;58.10;98906.13;6939561;28;20727;-77
2023/01/02 07:03:57;;;;;;;4.90;4.20;;;;;;;11.79;58.75;98880.25;6948092;28;20198;-78
2023/01/02 07:07:19;;;;;;;7.20;4.17;;;;;;;11.61;60.82;98914.34;6947786;28;20290;-77
2023/01/02 07:10:40;;;;;;;5.87;3.43;;;;;;;11.58;60.17;98915.59;6948712;28;20207;-76
2023/01/02 07:14:01;;;;;;;6.00;3.90;;;;;;;11.55;60.72;98923.25;6948860;28;20210;-80
2023/01/02 07:17:23;;;;;;;9.87;7.93;;;;;;;12.20;58.92;98928.56;6940610;28;20230;-79
2023/01/02 07:20:53;;;;;;;5.10;4.27;;;;;;;11.70;60.03;98940.13;6947570;28;20252;-78
2023/01/02 07:24:15;;;;;;;5.90;4.80;;;;;;;12.20;59.27;98932.13;6920887;28;20241;-78
2023/01/02 07:27:36;;;;;;;4.70;4.20;;;;;;;11.28;61.17;98946.69;6920316;28;20322;-79
2023/01/02 07:30:59;;;;;;;4.60;3.97;;;;;;;11.94;60.50;98939.47;6937492;28;20297;-81
2023/01/02 07:34:21;;;;;;;8.17;4.37;;;;;;;11.64;59.38;98957.97;6944053;28;20215;-76
2023/01/02 07:37:44;;;;;;;8.83;4.33;;;;;;;11.96;59.82;98967.09;6941200;28;20227;-80
2023/01/02 07:41:13;;;;;;;5.83;4.40;;;;;;;11.80;61.09;98964.84;6941473;28;20223;-78
2023/01/02 07:44:34;;;;;;;7.27;5.27;;;;;;;12.13;59.17;98957.50;6945874;28;20214;-79
2023/01/02 07:47:56;;;;;;;5.53;5.03;;;;;;;12.24;59.02;98978.47;6937159;28;20272;-77
2023/01/02 07:51:17;;;;;;;5.17;4.53;;;;;;;12.13;59.42;98979.13;6929112;28;20292;-79
2023/01/02 07:54:40;;;;;;;9.43;7.70;;;;;;;12.27;60.29;98968.06;6920778;28;20234;-79
2023/01/02 07:58:02;;;;;;;7.37;5.77;;;;;;;12.68;58.31;98973.97;6932291;28;20322;-80
2023/01/02 08:01:24;;;;;;;6.43;5.67;;;;;;;12.39;59.10;98970.97;6944266;28;20749;-78
2023/01/02 08:04:45;;;;;;;9.10;6.03;;;;;;;12.27;59.62;98976.19;6946082;28;20293;-79
2023/01/02 08:08:06;;;;;;;6.20;5.07;;;;;;;12.56;59.00;98969.47;6942214;28;20251;-79
2023/01/02 08:11:29;;;;;;;5.73;5.13;;;;;;;12.57;57.78;98979.22;6943365;28;20215;-77
2023/01/02 08:14:51;;;;;;;6.67;5.40;;;;;;;12.68;57.75;98981.28;6946678;28;20199;-79
2023/01/02 08:18:12;;;;;;;11.53;6.83;;;;;;;12.78;57.05;98982.47;6928857;28;20261;-76
2023/01/02 08:21:34;;;;;;;16.60;12.00;;;;;;;13.13;56.64;98983.78;6945179;28;20246;-76
2023/01/02 08:24:55;;;;;;;16.13;10.13;;;;;;;12.84;57.16;98957.25;6946834;28;20206;-79
2023/01/02 08:28:18;;;;;;;13.43;9.00;;;;;;;13.00;57.53;98978.44;6945685;28;20579;-79
2023/01/02 08:31:40;;;;;;;10.23;7.43;;;;;;;12.87;57.46;98956.81;6947654;28;20655;-79
2023/01/02 08:35:01;;;;;;;10.87;7.20;;;;;;;13.26;57.71;98980.16;6949826;28;20286;-81
2023/01/02 08:38:22;;;;;;;9.47;6.80;;;;;;;13.43;55.13;98967.75;6945882;28;20295;-77
2023/01/02 08:41:44;;;;;;;7.87;6.43;;;;;;;13.19;56.34;99004.56;6931968;28;20207;-79
2023/01/02 08:45:08;;;;;;;9.80;6.77;;;;;;;13.21;57.03;99005.19;6947503;28;20241;-79
2023/01/02 08:48:30;;;;;;;8.53;6.60;;;;;;;13.21;57.03;99005.19;6945437;28;20372;-77
2023/01/02 08:51:51;;;;;;;10.67;6.70;;;;;;;13.06;57.27;98987.56;6938242;28;20295;-79
2023/01/02 08:55:13;;;;;;;10.57;7.07;;;;;;;13.58;56.84;99007.00;6920295;28;20298;-78
2023/01/02 08:58:34;;;;;;;10.47;8.80;;;;;;;13.80;56.11;98997.47;6946900;28;20360;-79
2023/01/02 09:01:57;;;;;;;11.07;7.43;;;;;;;13.81;55.89;99006.44;6944352;28;20353;-78
2023/01/02 09:05:19;;;;;;;9.80;7.47;;;;;;;14.09;55.25;98996.81;6946044;28;20343;-76
2023/01/02 09:08:40;;;;;;;7.37;6.30;;;;;;;14.31;54.72;98994.53;6944282;28;20270;-77
2023/01/02 09:12:02;;;;;;;10.77;5.37;;;;;;;14.15;54.98;99005.94;6937776;28;20295;-76
2023/01/02 09:15:23;;;;;;;8.13;6.67;;;;;;;14.27;55.17;99015.03;6945198;28;20295;-76
2023/01/02 09:18:46;;;;;;;7.20;6.50;;;;;;;14.38;54.99;99011.56;6936303;28;20331;-77
2023/01/02 09:22:08;;;;;;;8.00;6.50;;;;;;;14.59;54.24;99011.16;6935246;28;20620;-76
2023/01/02 09:25:30;;;;;;;7.23;6.50;;;;;;;14.22;55.07;99018.41;6923352;28;20286;-75
2023/01/02 09:28:51;;;;;;;11.03;7.30;;;;;;;14.50;54.89;99016.03;6922501;28;20846;-76
2023/01/02 09:32:13;;;;;;;10.90;7.20;;;;;;;14.87;54.31;99025.03;6923437;28;20661;-76
2023/01/02 09:35:36;;;;;;;7.50;6.47;;;;;;;14.90;53.69;99028.13;6922810;28;20292;-76
2023/01/02 09:38:59;;;;;;;9.30;6.83;;;;;;;14.79;53.40;99028.03;6930951;28;20236;-76
2023/01/02 09:42:20;;;;;;;9.63;8.30;;;;;;;13.95;55.29;99021.53;6949550;28;20272;-76
2023/01/02 09:45:43;;;;;;;16.67;13.30;;;;;;;14.29;55.63;99040.03;6959627;28;20716;-76
2023/01/02 09:49:05;;;;;;;7.40;6.03;;;;;;;14.20;55.74;99053.06;6976143;28;20232;-76
2023/01/02 09:52:30;;;;;;;8.53;5.33;;;;;;;14.59;54.26;99030.16;6976877;28;20216;-76
2023/01/02 09:55:55;;;;;;;7.40;4.60;;;;;;;15.55;50.96;99045.44;6959595;28;20199;-76
2023/01/02 09:59:22;;;;;;;6.33;4.17;;;;;;;15.79;49.06;99039.03;6948793;28;20303;-76
2023/01/02 10:02:50;;;;;;;6.43;3.40;;;;;;;16.29;46.67;99038.41;6949500;28;20224;-81
2023/01/02 10:06:15;;;;;;;9.33;3.70;;;;;;;16.67;45.58;99043.41;6947372;28;20664;-76
2023/01/02 10:09:49;;;;;;;3.90;2.83;;;;;;;16.94;44.09;99034.50;6946332;28;20316;-76
2023/01/02 10:13:16;;;;;;;7.70;3.87;;;;;;;17.09;45.45;99053.03;6924464;28;20268;-76
2023/01/02 10:16:40;;;;;;;7.27;4.30;;;;;;;17.51;42.18;99046.31;6922507;28;20304;-76
2023/01/02 10:20:05;;;;;;;6.33;4.03;;;;;;;17.67;41.95;99059.16;6927386;28;20251;-76
2023/01/02 10:23:29;;;;;;;10.03;3.07;;;;;;;17.93;37.50;99040.28;6945528;28;20442;-76
2023/01/02 10:26:53;;;;;;;4.83;2.50;;;;;;;18.60;35.29;99046.59;6944879;28;20233;-76
2023/01/02 10:30:19;;;;;;;4.53;2.30;;;;;;;18.81;34.78;99049.34;6941985;28;20259;-76
2023/01/02 10:33:45;;;;;;;2.90;2.00;;;;;;;19.82;33.75;99040.53;6949812;28;20535;-76
2023/01/02 10:37:13;;;;;;;4.77;2.07;;;;;;;20.04;33.12;99033.06;6947686;28;20230;-77
2023/01/02 10:40:34;;;;;;;3.40;2.07;;;;;;;20.24;31.23;99042.31;6948411;28;20230;-77
2023/01/02 10:43:59;;;;;;;4.23;2.23;;;;;;;20.09;32.42;99038.59;6948875;28;20261;-74
2023/01/02 10:47:22;;;;;;;7.00;2.30;;;;;;;20.47;30.94;99024.69;6947795;28;20258;-77
2023/01/02 10:50:47;;;;;;;6.77;2.37;;;;;;;19.96;30.48;99030.78;6938251;28;20209;-76
2023/01/02 10:54:09;;;;;;;7.43;2.20;;;;;;;20.56;31.03;99040.38;6921576;28;20250;-76
2023/01/02 10:57:39;;;;;;;5.10;2.30;;;;;;;20.67;30.05;99030.28;6940311;28;20645;-77
2023/01/02 11:01:06;;;;;;;5.23;2.70;;;;;;;20.77;30.59;99037.50;6948587;28;20227;-76
2023/01/02 11:04:30;;;;;;;2.80;2.27;;;;;;;20.71;30.63;99034.16;6948444;28;20241;-77
2023/01/02 11:07:53;;;;;;;5.30;2.40;;;;;;;21.05;30.17;99051.94;6970481;28;20312;-76
2023/01/02 11:11:15;;;;;;;3.93;2.00;;;;;;;20.89;31.11;99051.03;6960403;28;20253;-76
2023/01/02 11:14:37;;;;;;;8.47;2.47;;;;;;;20.98;30.24;99057.66;6948484;28;20312;-76
2023/01/02 11:18:00;;;;;;;4.27;2.03;;;;;;;20.92;30.50;99050.50;6945486;28;20262;-76
2023/01/02 11:21:26;;;;;;;2.97;2.30;;;;;;;21.18;30.68;99046.81;6942582;28;20224;-76
2023/01/02 11:24:54;;;;;;;7.13;2.40;;;;;;;21.17;31.00;99033.34;6947857;28;20207;-76
2023/01/02 11:28:17;;;;;;;6.83;3.13;;;;;;;21.49;30.40;99043.91;6946602;28;20247;-76
2023/01/02 11:31:42;;;;;;;3.20;2.17;;;;;;;20.64;31.66;99052.75;6947395;28;20207;-77
2023/01/02 11:35:06;;;;;;;3.30;2.30;;;;;;;20.48;31.43;99038.13;6947044;28;20215;-78
2023/01/02 11:38:40;;;;;;;5.87;3.00;;;;;;;21.20;30.69;99030.91;6953237;28;20255;-76
2023/01/02 11:45:51;;;;;;;6.27;2.90;;;;;;;21.17;30.95;99049.81;6947259;28;20188;-77
2023/01/02 11:49:14;;;;;;;9.90;4.63;;;;;;;20.74;31.35;99039.13;6946738;28;20826;-78
2023/01/02 11:52:40;;;;;;;5.00;3.60;;;;;;;20.91;31.82;99045.28;6944569;28;20231;-77
2023/01/02 11:56:06;;;;;;;21.13;18.57;;;;;;;21.46;30.78;99047.19;6947013;28;21263;-77
2023/01/02 11:59:31;;;;;;;7.10;4.33;;;;;;;21.76;30.94;99043.72;6946746;28;20231;-76
2023/01/02 12:02:54;;;;;;;7.97;2.67;;;;;;;21.80;30.19;99053.09;6947037;28;20302;-77
2023/01/02 12:06:18;;;;;;;5.17;2.60;;;;;;;21.66;30.63;99058.22;6946634;28;20693;-76
2023/01/02 12:09:51;;;;;;;5.80;2.70;;;;;;;21.19;30.98;99059.44;6940836;28;20234;-77
2023/01/02 12:13:30;;;;;;;5.63;2.30;;;;;;;21.17;32.35;99049.81;6936705;28;20242;-76
2023/01/02 12:16:54;;;;;;;3.60;2.20;;;;;;;21.32;32.36;99058.94;6946421;28;20264;-78
2023/01/02 12:20:28;;;;;;;7.47;2.90;;;;;;;21.18;32.93;99058.59;6946692;28;20235;-76
2023/01/02 12:24:25;;;;;;;10.73;2.97;;;;;;;21.02;32.57;99063.44;6947199;28;20208;-78
2023/01/02 12:27:54;;;;;;;3.53;2.17;;;;;;;21.24;32.16;99045.75;6940599;28;20313;-76
2023/01/02 12:31:27;;;;;;;8.37;2.50;;;;;;;21.36;31.57;99046.34;6931281;28;20556;-79
2023/01/02 12:35:03;;;;;;;7.37;2.73;;;;;;;21.25;32.01;99061.91;6946119;28;20298;-78
2023/01/02 12:38:31;;;;;;;5.63;2.50;;;;;;;21.16;31.73;99051.72;6930675;28;20798;-77
2023/01/02 12:41:59;;;;;;;5.67;2.77;;;;;;;21.13;32.50;99033.88;6946744;28;20842;-78
2023/01/02 12:45:29;;;;;;;4.33;2.67;;;;;;;21.24;32.64;99032.84;6947222;28;20292;-77
2023/01/02 12:49:00;;;;;;;6.03;2.70;;;;;;;21.02;33.33;99040.41;6951746;28;20360;-78
2023/01/02 12:52:34;;;;;;;7.07;2.40;;;;;;;21.22;32.76;99047.91;6951844;28;20278;-78
2023/01/02 12:56:05;;;;;;;5.63;2.47;;;;;;;21.08;33.16;99035.78;6946693;28;20209;-77
2023/01/02 12:59:45;;;;;;;4.40;2.43;;;;;;;21.27;32.72;99050.69;6951897;28;20228;-75
2023/01/02 13:03:22;;;;;;;6.07;2.50;;;;;;;21.25;32.32;99042.72;6941593;28;20483;-77
2023/01/02 13:06:48;;;;;;;7.00;2.60;;;;;;;21.17;32.98;99053.38;6949868;28;20291;-77
2023/01/02 13:10:13;;;;;;;5.87;2.83;;;;;;;21.16;33.40;99037.19;6940769;28;20200;-76
2023/01/02 13:13:37;;;;;;;4.97;2.47;;;;;;;21.13;32.86;99060.50;6945521;28;20241;-77
2023/01/02 13:17:10;;;;;;;6.80;2.90;;;;;;;21.01;33.20;99068.09;6949897;28;20250;-77
2023/01/02 13:20:42;;;;;;;7.97;3.20;;;;;;;21.05;33.98;99071.94;6951534;28;20309;-77
2023/01/02 13:24:04;;;;;;;11.00;4.50;;;;;;;21.22;33.99;99058.88;6942871;28;20207;-77
2023/01/02 13:27:25;;;;;;;4.97;3.33;;;;;;;21.04;34.12;99064.00;6924463;28;20230;-76
2023/01/02 13:30:57;;;;;;;6.37;3.07;;;;;;;21.31;34.10;99063.56;6925163;28;20224;-77
2023/01/02 13:34:22;;;;;;;7.13;2.77;;;;;;;21.24;34.20;99078.66;6944251;28;20683;-77
2023/01/02 13:37:44;;;;;;;7.27;2.73;;;;;;;21.27;34.07;99073.47;6950475;28;22429;-77
2023/01/02 13:41:06;;;;;;;8.33;3.27;;;;;;;21.31;34.64;99082.78;6948291;28;20779;-77
2023/01/02 13:44:32;;;;;;;7.57;3.40;;;;;;;21.18;34.55;99058.59;6942949;28;20299;-77
2023/01/02 13:47:55;;;;;;;10.17;2.97;;;;;;;21.31;34.71;99084.72;6939613;28;20245;-77
2023/01/02 13:51:18;;;;;;;6.40;2.83;;;;;;;20.86;34.53;99042.50;6950852;28;20203;-77
2023/01/02 13:55:27;;;;;;;6.57;3.03;;;;;;;20.89;35.66;99086.69;6944375;28;20335;-76
2023/01/02 13:58:52;;;;;;;5.47;2.90;;;;;;;20.76;36.33;99109.00;6947030;28;20231;-77
2023/01/02 14:02:21;;;;;;;7.90;2.73;;;;;;;20.57;34.66;99099.56;6950505;28;20380;-77
2023/01/02 14:05:57;;;;;;;6.83;2.97;;;;;;;20.88;34.58;99103.34;6950795;28;20200;-77
2023/01/02 14:09:20;;;;;;;5.33;2.80;;;;;;;20.74;33.52;99108.44;6949787;28;20374;-77
2023/01/02 14:12:44;;;;;;;7.80;3.03;;;;;;;20.69;34.75;99102.13;6945910;28;20235;-80
2023/01/02 14:16:26;;;;;;;8.50;3.00;;;;;;;20.68;34.27;99114.97;6949758;28;20273;-77
2023/01/02 14:20:23;;;;;;;9.60;3.50;;;;;;;20.52;33.59;99117.88;6950168;28;20227;-78
2023/01/02 14:23:48;;;;;;;8.43;3.80;;;;;;;20.37;33.94;99107.59;6949010;28;20199;-77
2023/01/02 14:27:19;;;;;;;11.67;4.03;;;;;;;20.49;33.26;99115.63;6941965;28;20813;-77
2023/01/02 14:30:41;;;;;;;20.20;9.87;;;;;;;20.31;33.76;99111.38;6950081;28;20237;-77
2023/01/02 14:34:04;;;;;;;10.00;3.57;;;;;;;20.72;33.28;99128.97;6947305;28;20271;-77
2023/01/02 14:37:29;;;;;;;11.43;3.80;;;;;;;20.48;33.89;99141.38;6944254;28;20318;-78
2023/01/02 14:40:51;;;;;;;14.70;5.80;;;;;;;20.62;34.35;99139.84;6951965;28;20318;-78
2023/01/02 14:44:12;;;;;;;22.63;8.23;;;;;;;20.73;33.88;99145.16;6951189;28;20253;-78
2023/01/02 14:47:36;;;;;;;12.40;5.67;;;;;;;20.72;33.98;99142.69;6950371;28;20280;-78
2023/01/02 14:51:02;;;;;;;17.23;8.70;;;;;;;20.83;34.01;99172.66;6951627;28;20290;-79
2023/01/02 14:54:27;;;;;;;10.57;4.83;;;;;;;20.67;34.20;99166.22;6942237;28;20267;-78
2023/01/02 14:57:49;;;;;;;13.67;7.30;;;;;;;20.77;34.64;99177.28;6944715;28;20318;-78
2023/01/02 15:01:13;;;;;;;11.23;4.50;;;;;;;20.41;35.34;99177.19;6961909;28;20559;-78
2023/01/02 15:04:39;;;;;;;17.80;6.10;;;;;;;20.38;35.36;99163.19;6958907;28;20199;-79
2023/01/02 15:08:07;;;;;;;10.10;3.90;;;;;;;20.44;35.81;99189.56;6956511;28;20219;-79
2023/01/02 15:15:10;;;;;;;29.70;15.93;;;;;;;20.46;35.83;99196.44;6958380;28;20199;-79
2023/01/02 15:18:33;;;;;;;30.73;14.53;;;;;;;20.14;36.29;99222.94;6958609;28;20258;-78
2023/01/02 15:21:55;;;;;;;7.23;4.20;;;;;;;19.66;37.85;99219.25;6949297;28;20272;-78
2023/01/02 15:25:33;;;;;;;9.40;4.80;;;;;;;20.07;37.35;99225.03;6948545;28;20199;-79
2023/01/02 15:28:57;;;;;;;12.83;4.73;;;;;;;20.13;37.98;99245.09;6946114;28;20314;-77
2023/01/02 15:32:22;;;;;;;8.63;4.00;;;;;;;20.16;37.52;99253.59;6926340;28;20200;-76
2023/01/02 15:35:44;;;;;;;9.70;2.80;;;;;;;19.08;37.55;99254.44;6920330;28;20207;-77
2023/01/02 15:39:11;;;;;;;10.47;3.70;;;;;;;19.28;37.81;99258.38;6934904;28;20223;-77
2023/01/02 15:46:16;;;;;;;8.67;4.87;;;;;;;19.78;36.30;99280.16;6929051;28;20207;-77
2023/01/02 15:49:40;;;;;;;10.07;4.80;;;;;;;19.69;36.71;99278.97;6946296;28;20219;-77
2023/01/02 15:53:02;;;;;;;9.10;3.87;;;;;;;19.15;37.85;99286.00;6946866;28;20216;-77
2023/01/02 15:56:32;;;;;;;8.50;3.60;;;;;;;19.09;37.99;99287.00;6944525;28;20300;-77
2023/01/02 15:59:55;;;;;;;8.77;3.70;;;;;;;19.10;37.54;99291.41;6945324;28;20248;-77
2023/01/02 16:03:34;;;;;;;7.30;2.80;;;;;;;18.57;39.08;99315.56;6945241;28;20317;-77
2023/01/02 16:06:57;;;;;;;5.07;2.60;;;;;;;18.65;39.39;99315.19;6944446;28;20252;-77
2023/01/02 16:10:20;;;;;;;8.40;2.97;;;;;;;18.71;39.14;99299.72;6945571;28;20230;-77
2023/01/02 16:17:28;;;;;;;6.40;2.60;;;;;;;18.55;39.91;99311.41;6952520;28;20231;-77
2023/01/02 16:20:49;;;;;;;4.03;2.83;;;;;;;18.16;40.50;99326.69;6946376;28;20227;-76